Avord (BA 702) Air Base

LFOA · Cher, Centre, 法国

罗盘
风向 的 风向 320° Avord (BA 702) Air Base 6/24
风: 5 kt, 2 beaufort

1 kt

5 kt
改变
0 ft 1.000 2.000 3.000 4.000 5.000
CAVOK
METAR LFOA 230100Z AUTO 32005KT CAVOK 14/12 Q1019

METAR Avord (BA 702) Air Base - LFOA

Avord (BA 702) Air Base是,法国中的中型机场。 该机场位于纬度47,05570和经度2,63181。 该机场有一条跑道: 6/24. 本场的ICAO机场代码为LFOA。 机场在Paris FIR中。

该航空气象观测是针对Avord (BA 702) Air Base在2024年6月23日 03:00, 当地时间进行的。

机场观察

风向为320°,速度为5 kt。

天气为CAVOK。这意味着在5.000 ft或MSA(最低安全高度)以下(以较高者为准)以下没有云。这也意味着没有观测到积雨云或高耸的积云,可见度为10 km 或者更多或更高。此外,不会有雾,降雨或其他重要天气。

温度和风寒是14 °C。 露点为12 °C,相对湿度为88%。 海平面上的气压为1019 hPa (QNH)。

白天

今天,太阳从05:54升起,在21:48降落。 这适用于Avord (BA 702) Air Base,世界夏令时可能有所不同。 当地时间与世界标准时间之间的时差为+2 小时。 夏令时目前正在进行中。

公司介绍

我们没有关于这个机场的公司信息。

体会

到Vliegles.nl去找飞行课程,跳伞和其他飞行体验。 浏览页面,了解Avord (BA 702) Air Base附近所有可用的活动。 你也可以使用搜索功能来寻找你所在地附近的特定飞行课程、跳伞或其他飞行体验。

跑道

Id 标题 侧风 逆风 侧风 %
6/24 059°-239° 5 kt 99 %

逆风成分最大的方向会被突出显示,并用于横风计算。 这并不一定意味着这个方向在使用。

温度 & 天气

温度 14 °C
露点 12 °C
相对湿度 88%
Kp-index 1 (0-9)

白天

日出
05:54 (2:21)
中午
13:51
日落
21:48

小工具

你想在你的网站上有一个关于Avord (BA 702) Air Base的当前航空天气(METAR)的小部件吗?

显示HTML代码
报告变更